createdAt,value
2023-04-25T00:01:57.598Z,100.00
2023-04-25T00:02:46.871Z,100.00
2023-04-25T00:04:24.222Z,100.00
2023-04-25T00:06:50.946Z,100.00
2023-04-25T00:07:46.725Z,100.00
2023-04-25T00:09:17.429Z,100.00
2023-04-25T00:11:43.894Z,100.00
2023-04-25T00:12:46.788Z,100.00
2023-04-25T00:14:10.945Z,100.00
2023-04-25T00:16:39.923Z,100.00
2023-04-25T00:17:46.902Z,100.00
2023-04-25T00:19:06.417Z,100.00
2023-04-25T00:21:32.867Z,100.00
2023-04-25T00:22:46.753Z,100.00
2023-04-25T00:23:59.583Z,100.00
2023-04-25T00:26:26.627Z,100.00
2023-04-25T00:27:46.793Z,100.00
2023-04-25T00:28:53.045Z,100.00
2023-04-25T00:31:19.566Z,100.00
2023-04-25T00:32:46.757Z,100.00
2023-04-25T00:33:46.045Z,100.00
2023-04-25T00:36:12.503Z,100.00
2023-04-25T00:37:46.814Z,100.00
2023-04-25T00:38:41.277Z,100.00
2023-04-25T00:41:08.514Z,100.00
2023-04-25T00:42:46.749Z,100.00
2023-04-25T00:43:39.022Z,100.00
2023-04-25T00:46:05.596Z,100.00
2023-04-25T00:47:46.810Z,100.00
2023-04-25T00:48:32.114Z,100.00
2023-04-25T00:50:59.889Z,100.00
2023-04-25T00:52:46.763Z,100.00
2023-04-25T00:53:28.683Z,100.00
2023-04-25T00:55:55.994Z,100.00
2023-04-25T00:57:46.767Z,100.00
2023-04-25T00:58:23.023Z,100.00
2023-04-25T01:00:53.011Z,100.00
2023-04-25T01:02:46.902Z,100.00
2023-04-25T01:03:22.906Z,100.00
2023-04-25T01:05:49.650Z,100.00
2023-04-25T01:07:46.727Z,100.00
2023-04-25T01:08:16.210Z,100.00
2023-04-25T01:10:42.793Z,100.00
2023-04-25T01:12:46.736Z,100.00
2023-04-25T01:13:09.975Z,100.00
2023-04-25T01:15:36.991Z,100.00
2023-04-25T01:17:46.791Z,100.00
2023-04-25T01:18:08.269Z,100.00
2023-04-25T01:20:35.287Z,100.00
2023-04-25T01:22:46.767Z,100.00
2023-04-25T01:23:03.205Z,100.00
2023-04-25T01:25:30.902Z,100.00
2023-04-25T01:27:46.764Z,100.00
2023-04-25T01:27:58.423Z,100.00
2023-04-25T01:30:28.997Z,100.00
2023-04-25T01:32:46.770Z,100.00
2023-04-25T01:32:57.343Z,100.00
2023-04-25T01:35:26.874Z,100.00
2023-04-25T01:37:47.770Z,100.00
2023-04-25T01:37:53.296Z,100.00
2023-04-25T01:40:21.890Z,100.00
2023-04-25T01:42:46.737Z,100.00
2023-04-25T01:42:48.392Z,100.00
2023-04-25T01:45:14.879Z,100.00
2023-04-25T01:47:41.323Z,100.00
2023-04-25T01:47:46.792Z,100.00
2023-04-25T01:50:09.179Z,100.00
2023-04-25T01:52:35.651Z,100.00
2023-04-25T01:52:46.768Z,100.00
2023-04-25T01:55:02.972Z,100.00
2023-04-25T01:57:29.386Z,100.00
2023-04-25T01:57:46.741Z,100.00
2023-04-25T02:00:01.554Z,100.00
2023-04-25T02:02:28.418Z,100.00
2023-04-25T02:02:46.898Z,100.00
2023-04-25T02:04:55.495Z,100.00
2023-04-25T02:07:22.103Z,100.00
2023-04-25T02:07:46.753Z,100.00
2023-04-25T02:09:48.641Z,100.00
2023-04-25T02:12:15.152Z,100.00
2023-04-25T02:12:46.768Z,100.00
2023-04-25T02:14:41.623Z,100.00
2023-04-25T02:17:08.154Z,100.00
2023-04-25T02:17:46.779Z,100.00
2023-04-25T02:19:34.812Z,100.00
2023-04-25T02:22:01.635Z,100.00
2023-04-25T02:22:46.765Z,100.00
2023-04-25T02:24:28.941Z,100.00
2023-04-25T02:26:56.765Z,100.00
2023-04-25T02:27:46.882Z,100.00
2023-04-25T02:29:24.080Z,100.00
2023-04-25T02:31:50.703Z,100.00
2023-04-25T02:32:46.787Z,100.00
2023-04-25T02:34:17.151Z,100.00
2023-04-25T02:36:43.596Z,100.00
2023-04-25T02:37:46.766Z,100.00
2023-04-25T02:39:09.979Z,100.00
2023-04-25T02:41:36.412Z,100.00
2023-04-25T02:42:46.738Z,100.00
2023-04-25T02:44:02.777Z,100.00
2023-04-25T02:46:38.853Z,100.00
2023-04-25T02:47:46.741Z,100.00
2023-04-25T02:49:06.895Z,100.00
2023-04-25T02:51:33.638Z,100.00
2023-04-25T02:52:46.779Z,100.00
2023-04-25T02:54:00.300Z,100.00
2023-04-25T02:56:27.247Z,100.00
2023-04-25T02:57:46.732Z,100.00
2023-04-25T02:58:54.639Z,100.00
2023-04-25T03:01:21.351Z,100.00
2023-04-25T03:02:46.899Z,100.00
2023-04-25T03:03:48.015Z,100.00
2023-04-25T03:06:14.911Z,100.00
2023-04-25T03:07:46.742Z,100.00
2023-04-25T03:08:41.360Z,100.00
2023-04-25T03:11:07.894Z,100.00
2023-04-25T03:12:46.742Z,100.00
2023-04-25T03:13:34.329Z,100.00
2023-04-25T03:16:01.055Z,100.00
2023-04-25T03:17:46.786Z,100.00
2023-04-25T03:18:27.423Z,100.00
2023-04-25T03:20:53.904Z,100.00
2023-04-25T03:22:46.783Z,100.00
2023-04-25T03:23:20.275Z,100.00
2023-04-25T03:25:46.709Z,100.00
2023-04-25T03:27:46.767Z,100.00
2023-04-25T03:28:13.154Z,100.00
2023-04-25T03:30:39.462Z,100.00
2023-04-25T03:32:46.822Z,100.00
2023-04-25T03:33:05.842Z,100.00
2023-04-25T03:35:34.363Z,100.00
2023-04-25T03:37:46.818Z,100.00
2023-04-25T03:38:00.768Z,100.00
2023-04-25T03:40:27.149Z,100.00
2023-04-25T03:42:46.771Z,100.00
2023-04-25T03:42:53.560Z,100.00
2023-04-25T03:45:20.336Z,100.00
2023-04-25T03:47:46.766Z,100.00
2023-04-25T03:47:47.012Z,100.00
2023-04-25T03:50:13.130Z,100.00
2023-04-25T03:52:39.480Z,100.00
2023-04-25T03:52:46.753Z,100.00
2023-04-25T03:55:06.366Z,100.00
2023-04-25T03:57:34.169Z,100.00
2023-04-25T03:57:46.746Z,100.00
2023-04-25T04:00:00.688Z,100.00
2023-04-25T04:02:27.365Z,100.00
2023-04-25T04:02:46.848Z,100.00
2023-04-25T04:04:57.685Z,100.00
2023-04-25T04:07:24.298Z,100.00
2023-04-25T04:07:46.770Z,100.00
2023-04-25T04:09:50.639Z,100.00
2023-04-25T04:12:17.090Z,100.00
2023-04-25T04:12:46.775Z,100.00
2023-04-25T04:14:43.468Z,100.00
2023-04-25T04:17:09.849Z,100.00
2023-04-25T04:17:46.831Z,100.00
2023-04-25T04:19:36.229Z,100.00
2023-04-25T04:22:02.744Z,100.00
2023-04-25T04:22:46.781Z,100.00
2023-04-25T04:24:29.231Z,100.00
2023-04-25T04:26:56.009Z,100.00
2023-04-25T04:27:46.931Z,100.00
2023-04-25T04:29:23.645Z,100.00
2023-04-25T04:31:51.845Z,100.00
2023-04-25T04:32:47.433Z,100.00
2023-04-25T04:34:19.397Z,100.00
2023-04-25T04:36:47.232Z,100.00
2023-04-25T04:37:46.905Z,100.00
2023-04-25T04:39:14.553Z,100.00
2023-04-25T04:41:41.387Z,100.00
2023-04-25T04:42:46.769Z,100.00
2023-04-25T04:44:09.919Z,100.00
2023-04-25T04:46:38.789Z,100.00
2023-04-25T04:47:46.845Z,100.00
2023-04-25T04:49:10.223Z,100.00
2023-04-25T04:51:37.529Z,100.00
2023-04-25T04:52:46.785Z,100.00
2023-04-25T04:54:04.659Z,100.00
2023-04-25T04:56:34.037Z,100.00
2023-04-25T04:57:46.763Z,100.00
2023-04-25T04:59:00.796Z,100.00
2023-04-25T05:01:27.718Z,100.00
2023-04-25T05:02:46.905Z,100.00
2023-04-25T05:03:55.225Z,100.00
2023-04-25T05:06:21.927Z,100.00
2023-04-25T05:07:46.764Z,100.00
2023-04-25T05:08:48.370Z,100.00
2023-04-25T05:11:14.913Z,100.00
2023-04-25T05:12:46.791Z,100.00
2023-04-25T05:13:41.239Z,100.00
2023-04-25T05:16:07.690Z,100.00
2023-04-25T05:17:46.790Z,100.00
2023-04-25T05:18:34.127Z,100.00
2023-04-25T05:21:00.471Z,100.00
2023-04-25T05:22:46.771Z,100.00
2023-04-25T05:23:28.753Z,100.00
2023-04-25T05:25:55.357Z,100.00
2023-04-25T05:27:46.783Z,100.00
2023-04-25T05:28:22.153Z,100.00
2023-04-25T05:30:48.792Z,100.00
2023-04-25T05:32:46.775Z,100.00
2023-04-25T05:33:15.594Z,100.00
2023-04-25T05:35:42.573Z,96.23
2023-04-25T05:37:46.785Z,96.23
2023-04-25T05:38:09.021Z,95.93
2023-04-25T05:40:38.147Z,96.18
2023-04-25T05:42:46.756Z,96.18
2023-04-25T05:43:04.603Z,95.57
2023-04-25T05:45:31.103Z,96.63
2023-04-25T05:47:46.781Z,96.63
2023-04-25T05:47:57.459Z,97.97
2023-04-25T05:50:23.922Z,97.35
2023-04-25T05:52:46.785Z,97.35
2023-04-25T05:52:50.849Z,96.80
2023-04-25T05:55:17.359Z,94.00
2023-04-25T05:57:46.180Z,92.70
2023-04-25T05:57:46.756Z,92.70
2023-04-25T06:00:15.958Z,91.99
2023-04-25T06:02:43.045Z,92.04
2023-04-25T06:02:46.977Z,92.04
2023-04-25T06:05:09.840Z,90.47
2023-04-25T06:07:36.369Z,90.35
2023-04-25T06:07:46.771Z,90.35
2023-04-25T06:10:02.875Z,88.88
2023-04-25T06:12:29.266Z,88.53
2023-04-25T06:12:46.773Z,88.53
2023-04-25T06:14:55.683Z,88.52
2023-04-25T06:17:22.193Z,89.75
2023-04-25T06:17:46.808Z,89.75
2023-04-25T06:19:48.590Z,89.16
2023-04-25T06:22:14.922Z,87.14
2023-04-25T06:22:46.749Z,87.14
2023-04-25T06:24:41.320Z,87.08
2023-04-25T06:27:07.727Z,87.26
2023-04-25T06:27:46.777Z,87.26
2023-04-25T06:29:34.155Z,86.79
2023-04-25T06:32:02.902Z,87.74
2023-04-25T06:32:46.772Z,87.74
2023-04-25T06:34:29.235Z,87.34
2023-04-25T06:36:55.666Z,89.12
2023-04-25T06:37:46.840Z,89.12
2023-04-25T06:39:24.211Z,89.08
2023-04-25T06:41:50.688Z,88.47
2023-04-25T06:42:46.778Z,88.47
2023-04-25T06:44:17.135Z,87.84
2023-04-25T06:46:43.573Z,87.49
2023-04-25T06:47:46.846Z,87.49
2023-04-25T06:49:10.028Z,88.48
2023-04-25T06:51:36.497Z,87.44
2023-04-25T06:52:46.839Z,87.44
2023-04-25T06:54:07.630Z,85.53
2023-04-25T06:56:34.064Z,85.31
2023-04-25T06:57:46.770Z,85.31
2023-04-25T06:59:01.735Z,84.50
2023-04-25T07:01:28.273Z,83.69
2023-04-25T07:02:46.924Z,83.69
2023-04-25T07:03:54.832Z,82.33
2023-04-25T07:06:21.451Z,81.44
2023-04-25T07:07:46.788Z,81.44
2023-04-25T07:08:50.678Z,79.94
2023-04-25T07:11:17.206Z,78.70
2023-04-25T07:12:46.780Z,78.70
2023-04-25T07:13:43.646Z,78.43
2023-04-25T07:16:10.305Z,77.17
2023-04-25T07:17:46.867Z,77.17
2023-04-25T07:18:36.709Z,77.21
2023-04-25T07:21:03.366Z,76.25
2023-04-25T07:22:46.817Z,76.25
2023-04-25T07:23:29.780Z,75.12
2023-04-25T07:25:56.846Z,74.51
2023-04-25T07:27:46.800Z,74.51
2023-04-25T07:28:23.254Z,73.69
2023-04-25T07:30:49.657Z,74.30
2023-04-25T07:32:46.843Z,74.30
2023-04-25T07:33:16.170Z,74.67
2023-04-25T07:35:42.704Z,74.85
2023-04-25T07:37:46.897Z,74.85
2023-04-25T07:38:09.177Z,74.73
2023-04-25T07:40:36.222Z,75.78
2023-04-25T07:42:46.811Z,75.78
2023-04-25T07:43:03.172Z,75.31
2023-04-25T07:45:29.823Z,76.21
2023-04-25T07:47:46.810Z,76.21
2023-04-25T07:47:58.469Z,76.30
2023-04-25T07:50:25.118Z,74.81
2023-04-25T07:52:46.803Z,74.81
2023-04-25T07:52:51.606Z,76.10
2023-04-25T07:55:17.902Z,75.34
2023-04-25T07:57:44.233Z,74.30
2023-04-25T07:57:46.791Z,74.30
2023-04-25T08:00:12.091Z,73.28
2023-04-25T08:02:38.648Z,73.17
2023-04-25T08:02:46.864Z,73.17
2023-04-25T08:05:06.247Z,73.43
2023-04-25T08:07:32.881Z,72.57
2023-04-25T08:07:46.800Z,72.57
2023-04-25T08:09:59.309Z,72.23
2023-04-25T08:12:25.945Z,71.57
2023-04-25T08:12:46.793Z,71.57
2023-04-25T08:14:52.453Z,69.89
2023-04-25T08:17:19.047Z,69.42
2023-04-25T08:17:46.881Z,69.42
2023-04-25T08:19:45.470Z,67.85
2023-04-25T08:22:11.973Z,65.31
2023-04-25T08:22:46.800Z,65.31
2023-04-25T08:24:39.434Z,65.13
2023-04-25T08:27:07.489Z,66.03
2023-04-25T08:27:46.782Z,66.03
2023-04-25T08:29:34.034Z,67.11
2023-04-25T08:32:00.551Z,67.31
2023-04-25T08:32:46.884Z,67.31
2023-04-25T08:34:27.141Z,68.49
2023-04-25T08:36:53.960Z,68.23
2023-04-25T08:37:46.880Z,68.23
2023-04-25T08:39:21.808Z,66.73
2023-04-25T08:41:48.635Z,66.28
2023-04-25T08:42:46.927Z,66.28
2023-04-25T08:44:15.728Z,64.51
2023-04-25T08:46:42.439Z,63.01
2023-04-25T08:47:46.867Z,63.01
2023-04-25T08:49:12.699Z,61.54
2023-04-25T08:51:47.791Z,60.41
2023-04-25T08:52:46.798Z,60.41
2023-04-25T08:54:33.501Z,58.52
2023-04-25T08:57:04.711Z,58.57
2023-04-25T08:57:46.793Z,58.57
2023-04-25T08:59:32.275Z,58.47
2023-04-25T09:01:58.896Z,58.15
2023-04-25T09:02:46.920Z,58.15
2023-04-25T09:04:25.597Z,59.40
2023-04-25T09:06:52.060Z,59.04
2023-04-25T09:07:48.410Z,59.04
2023-04-25T09:09:19.127Z,59.34
2023-04-25T09:11:48.097Z,59.62
2023-04-25T09:12:46.920Z,59.62
2023-04-25T09:14:21.365Z,60.63
2023-04-25T09:16:58.742Z,59.33
2023-04-25T09:17:46.850Z,59.33
2023-04-25T09:19:39.574Z,57.27
2023-04-25T09:22:07.244Z,56.15
2023-04-25T09:22:46.796Z,56.15
2023-04-25T09:24:36.899Z,57.33
2023-04-25T09:27:04.816Z,58.01
2023-04-25T09:27:46.817Z,58.01
2023-04-25T09:29:37.124Z,58.04
2023-04-25T09:32:24.428Z,56.68
2023-04-25T09:32:46.883Z,56.68
2023-04-25T09:34:53.771Z,56.97
2023-04-25T09:37:21.426Z,59.24
2023-04-25T09:37:46.812Z,59.24
2023-04-25T09:39:49.764Z,58.73
2023-04-25T09:42:17.840Z,57.21
2023-04-25T09:42:46.851Z,57.21
2023-04-25T09:44:48.127Z,57.39
2023-04-25T09:47:17.336Z,57.88
2023-04-25T09:47:46.866Z,57.88
2023-04-25T09:49:44.521Z,58.41
2023-04-25T09:52:16.589Z,58.07
2023-04-25T09:52:46.812Z,58.07
2023-04-25T09:54:42.998Z,57.70
2023-04-25T09:57:18.750Z,57.79
2023-04-25T09:57:46.804Z,57.79
2023-04-25T09:59:52.689Z,55.81
2023-04-25T10:02:21.464Z,52.80
2023-04-25T10:02:46.944Z,52.80
2023-04-25T10:04:55.223Z,52.07
2023-04-25T10:07:26.661Z,52.02
2023-04-25T10:07:46.802Z,52.02
2023-04-25T10:10:04.040Z,54.49
2023-04-25T10:12:34.588Z,55.42
2023-04-25T10:12:46.819Z,55.42
2023-04-25T10:15:02.364Z,57.12
2023-04-25T10:17:29.088Z,57.39
2023-04-25T10:17:46.873Z,57.39
2023-04-25T10:19:56.096Z,56.73
2023-04-25T10:22:40.545Z,56.62
2023-04-25T10:22:46.808Z,56.62
2023-04-25T10:25:09.346Z,56.82
2023-04-25T10:27:36.362Z,56.71
2023-04-25T10:27:46.800Z,56.71
2023-04-25T10:30:13.432Z,55.99
2023-04-25T10:32:39.889Z,54.71
2023-04-25T10:32:46.809Z,54.71
2023-04-25T10:35:13.762Z,54.45
2023-04-25T10:38:01.120Z,53.95
2023-04-25T10:38:01.301Z,53.95
2023-04-25T10:40:28.149Z,55.03
2023-04-25T10:42:46.799Z,55.03
2023-04-25T10:42:55.941Z,55.25
2023-04-25T10:45:24.737Z,54.43
2023-04-25T10:47:46.891Z,54.43
2023-04-25T10:47:51.236Z,51.87
2023-04-25T10:50:18.043Z,50.58
2023-04-25T10:52:45.376Z,52.38
2023-04-25T10:52:46.793Z,52.38
2023-04-25T10:55:11.763Z,50.91
2023-04-25T10:57:48.514Z,49.38
2023-04-25T10:57:48.660Z,49.38
2023-04-25T11:00:17.566Z,48.85
2023-04-25T11:02:49.456Z,49.43
2023-04-25T11:02:49.869Z,49.43
2023-04-25T11:05:33.064Z,49.26
2023-04-25T11:07:52.914Z,49.26
2023-04-25T11:08:07.891Z,49.63
2023-04-25T11:10:37.907Z,50.65
2023-04-25T11:12:46.813Z,50.65
2023-04-25T11:13:05.484Z,51.19
2023-04-25T11:15:31.946Z,52.02
2023-04-25T11:17:46.875Z,52.02
2023-04-25T11:17:58.392Z,50.90
2023-04-25T11:20:29.097Z,51.52
2023-04-25T11:22:46.807Z,51.52
2023-04-25T11:22:58.937Z,51.09
2023-04-25T11:25:25.551Z,49.02
2023-04-25T11:27:46.829Z,49.02
2023-04-25T11:28:02.197Z,48.65
2023-04-25T11:30:29.840Z,48.99
2023-04-25T11:32:46.871Z,48.99
2023-04-25T11:32:56.318Z,48.95
2023-04-25T11:35:24.214Z,46.75
2023-04-25T11:37:47.007Z,46.75
2023-04-25T11:37:51.291Z,46.61
2023-04-25T11:40:17.829Z,46.25
2023-04-25T11:42:46.156Z,46.30
2023-04-25T11:42:46.832Z,46.30
2023-04-25T11:45:13.326Z,45.38
2023-04-25T11:47:39.909Z,46.74
2023-04-25T11:47:46.886Z,46.74
2023-04-25T11:50:08.901Z,44.94
2023-04-25T11:52:38.068Z,46.47
2023-04-25T11:52:46.823Z,46.47
2023-04-25T11:55:15.590Z,45.94
2023-04-25T11:57:43.656Z,44.23
2023-04-25T11:57:46.804Z,44.23
2023-04-25T12:00:17.624Z,44.69
2023-04-25T12:02:52.139Z,45.17
2023-04-25T12:02:52.648Z,45.17
2023-04-25T12:07:46.802Z,47.01
2023-04-25T12:07:48.162Z,48.01
2023-04-25T12:10:16.285Z,48.26
2023-04-25T12:12:43.997Z,49.90
2023-04-25T12:12:46.844Z,49.90
2023-04-25T12:15:16.208Z,50.83
2023-04-25T12:17:45.721Z,52.71
2023-04-25T12:17:46.913Z,52.71
2023-04-25T12:20:15.793Z,53.71
2023-04-25T12:22:47.690Z,54.40
2023-04-25T12:22:47.872Z,54.40
2023-04-25T12:25:34.247Z,55.47
2023-04-25T12:27:46.805Z,55.47
2023-04-25T12:28:28.433Z,57.11
2023-04-25T12:30:59.683Z,56.15
2023-04-25T12:32:46.905Z,56.15
2023-04-25T12:33:27.783Z,56.55
2023-04-25T12:35:55.094Z,56.41
2023-04-25T12:37:46.823Z,56.41
2023-04-25T12:38:30.853Z,55.10
2023-04-25T12:41:00.900Z,54.34
2023-04-25T12:42:46.858Z,54.34
2023-04-25T12:43:27.552Z,54.00
2023-04-25T12:45:55.496Z,53.55
2023-04-25T12:47:46.917Z,53.55
2023-04-25T12:48:22.853Z,52.38
2023-04-25T12:50:50.557Z,51.13
2023-04-25T12:52:46.820Z,51.13
2023-04-25T12:53:22.674Z,48.63
2023-04-25T12:55:49.363Z,50.20
2023-04-25T12:57:46.850Z,50.20
2023-04-25T12:58:17.346Z,48.75
2023-04-25T13:00:44.494Z,46.53
2023-04-25T13:02:46.950Z,46.53
2023-04-25T13:03:12.069Z,46.73
2023-04-25T13:05:39.400Z,47.46
2023-04-25T13:07:46.825Z,47.46
2023-04-25T13:08:05.879Z,47.48
2023-04-25T13:10:32.319Z,44.52
2023-04-25T13:12:46.900Z,44.52
2023-04-25T13:12:58.763Z,43.39
2023-04-25T13:15:25.831Z,42.20
2023-04-25T13:17:46.892Z,42.20
2023-04-25T13:17:52.251Z,42.42
2023-04-25T13:20:19.866Z,42.12
2023-04-25T13:22:46.682Z,42.72
2023-04-25T13:22:46.865Z,42.72
2023-04-25T13:25:12.985Z,41.54
2023-04-25T13:27:41.332Z,42.03
2023-04-25T13:27:46.856Z,42.03
2023-04-25T13:30:11.004Z,41.86
2023-04-25T13:32:38.267Z,41.82
2023-04-25T13:32:46.888Z,41.82
2023-04-25T13:35:09.251Z,43.08
2023-04-25T13:37:37.291Z,42.92
2023-04-25T13:37:46.841Z,42.92
2023-04-25T13:40:06.391Z,44.68
2023-04-25T13:42:35.705Z,46.66
2023-04-25T13:42:46.846Z,46.66
2023-04-25T13:45:02.150Z,46.74
2023-04-25T13:47:28.893Z,46.46
2023-04-25T13:47:46.942Z,46.46
2023-04-25T13:49:55.460Z,42.92
2023-04-25T13:52:21.948Z,42.54
2023-04-25T13:52:46.839Z,42.54
2023-04-25T13:54:48.272Z,42.39
2023-04-25T13:57:14.651Z,44.11
2023-04-25T13:57:46.896Z,44.11
2023-04-25T13:59:41.799Z,44.74
2023-04-25T14:02:08.378Z,44.41
2023-04-25T14:02:48.661Z,44.41
2023-04-25T14:04:34.785Z,46.41
2023-04-25T14:07:01.704Z,46.97
2023-04-25T14:07:46.831Z,46.97
2023-04-25T14:09:28.282Z,47.49
2023-04-25T14:11:55.282Z,48.60
2023-04-25T14:12:46.873Z,48.60
2023-04-25T14:14:22.926Z,49.13
2023-04-25T14:16:51.169Z,49.67
2023-04-25T14:17:46.913Z,49.67
2023-04-25T14:19:19.679Z,50.33
2023-04-25T14:21:47.795Z,51.09
2023-04-25T14:22:46.850Z,51.09
2023-04-25T14:24:14.676Z,52.17
2023-04-25T14:26:41.745Z,52.33
2023-04-25T14:27:46.840Z,52.33
2023-04-25T14:29:09.672Z,52.20
2023-04-25T14:31:36.393Z,52.13
2023-04-25T14:32:46.890Z,52.13
2023-04-25T14:34:03.650Z,51.56
2023-04-25T14:36:30.168Z,51.45
2023-04-25T14:37:46.862Z,51.45
2023-04-25T14:38:56.879Z,50.89
2023-04-25T14:41:24.122Z,51.17
2023-04-25T14:42:46.852Z,51.17
2023-04-25T14:43:50.722Z,50.64
2023-04-25T14:46:17.853Z,50.61
2023-04-25T14:47:47.000Z,50.61
2023-04-25T14:48:44.316Z,50.73
2023-04-25T14:51:11.322Z,49.77
2023-04-25T14:52:46.880Z,49.77
2023-04-25T14:53:38.087Z,49.36
2023-04-25T14:56:04.653Z,50.17
2023-04-25T14:57:46.887Z,50.17
2023-04-25T14:58:32.259Z,49.24
2023-04-25T15:00:59.470Z,47.84
2023-04-25T15:02:47.100Z,47.84
2023-04-25T15:03:26.334Z,49.26
2023-04-25T15:05:53.591Z,50.41
2023-04-25T15:07:46.896Z,50.41
2023-04-25T15:08:20.057Z,51.26
2023-04-25T15:10:47.426Z,52.37
2023-04-25T15:12:47.926Z,52.37
2023-04-25T15:13:13.929Z,53.09
2023-04-25T15:15:40.935Z,52.99
2023-04-25T15:17:46.886Z,52.99
2023-04-25T15:18:09.605Z,52.88
2023-04-25T15:20:36.442Z,52.63
2023-04-25T15:22:46.926Z,52.63
2023-04-25T15:23:04.476Z,54.18
2023-04-25T15:25:31.008Z,54.46
2023-04-25T15:27:46.871Z,54.46
2023-04-25T15:27:57.414Z,54.06
2023-04-25T15:30:24.505Z,54.65
2023-04-25T15:32:46.925Z,54.65
2023-04-25T15:32:51.007Z,55.29
2023-04-25T15:35:17.512Z,54.29
2023-04-25T15:37:44.194Z,52.32
2023-04-25T15:37:46.951Z,52.32
2023-04-25T15:40:14.953Z,51.17
2023-04-25T15:42:53.603Z,51.52
2023-04-25T15:42:53.807Z,51.52
2023-04-25T15:45:24.082Z,52.07
2023-04-25T15:47:46.854Z,52.07
2023-04-25T15:47:52.560Z,51.37
2023-04-25T15:50:19.837Z,50.35
2023-04-25T15:52:46.209Z,50.17
2023-04-25T15:52:46.893Z,50.17
2023-04-25T15:55:16.643Z,49.34
2023-04-25T15:57:43.122Z,48.87
2023-04-25T15:57:46.852Z,48.87
2023-04-25T16:00:12.850Z,49.47
2023-04-25T16:02:40.609Z,50.60
2023-04-25T16:02:47.000Z,50.60
2023-04-25T16:05:07.861Z,51.19
2023-04-25T16:07:34.710Z,51.80
2023-04-25T16:07:46.886Z,51.80
2023-04-25T16:10:01.550Z,51.54
2023-04-25T16:12:28.552Z,52.04
2023-04-25T16:12:46.893Z,52.04
2023-04-25T16:14:56.071Z,51.54
2023-04-25T16:17:22.506Z,50.55
2023-04-25T16:17:46.908Z,50.55
2023-04-25T16:19:50.245Z,49.46
2023-04-25T16:22:17.335Z,49.26
2023-04-25T16:22:46.856Z,49.26
2023-04-25T16:24:44.934Z,48.76
2023-04-25T16:27:11.468Z,48.79
2023-04-25T16:27:46.842Z,48.79
2023-04-25T16:29:38.395Z,47.45
2023-04-25T16:32:04.940Z,47.66
2023-04-25T16:32:46.922Z,47.66
2023-04-25T16:34:31.371Z,48.07
2023-04-25T16:36:57.715Z,47.42
2023-04-25T16:37:46.957Z,47.42
2023-04-25T16:39:24.064Z,47.58
2023-04-25T16:41:50.777Z,46.76
2023-04-25T16:42:46.861Z,46.76
2023-04-25T16:44:17.095Z,47.04
2023-04-25T16:46:43.642Z,48.56
2023-04-25T16:47:46.936Z,48.56
2023-04-25T16:49:10.174Z,48.69
2023-04-25T16:51:36.676Z,48.92
2023-04-25T16:52:46.886Z,48.92
2023-04-25T16:54:03.181Z,49.55
2023-04-25T16:56:29.651Z,50.30
2023-04-25T16:57:46.924Z,50.30
2023-04-25T16:58:55.976Z,51.44
2023-04-25T17:01:22.602Z,51.77
2023-04-25T17:02:47.163Z,51.77
2023-04-25T17:03:49.195Z,51.31
2023-04-25T17:06:15.762Z,51.22
2023-04-25T17:07:46.870Z,51.22
2023-04-25T17:08:42.102Z,52.11
2023-04-25T17:11:09.815Z,51.94
2023-04-25T17:12:46.903Z,51.94
2023-04-25T17:13:36.905Z,52.10
2023-04-25T17:16:03.928Z,51.46
2023-04-25T17:17:46.943Z,51.46
2023-04-25T17:18:30.407Z,51.57
2023-04-25T17:20:56.790Z,52.34
2023-04-25T17:22:46.946Z,52.34
2023-04-25T17:23:25.698Z,52.79
2023-04-25T17:25:52.120Z,53.59
2023-04-25T17:27:46.902Z,53.59
2023-04-25T17:28:18.489Z,53.68
2023-04-25T17:30:44.825Z,52.69
2023-04-25T17:32:46.899Z,52.69
2023-04-25T17:33:11.278Z,52.94
2023-04-25T17:35:37.654Z,53.34
2023-04-25T17:37:46.975Z,53.34
2023-04-25T17:38:04.232Z,54.05
2023-04-25T17:40:31.507Z,53.18
2023-04-25T17:42:46.873Z,53.18
2023-04-25T17:42:57.947Z,53.67
2023-04-25T17:45:24.294Z,52.97
2023-04-25T17:47:46.898Z,52.97
2023-04-25T17:47:50.731Z,53.24
2023-04-25T17:50:17.510Z,53.42
2023-04-25T17:52:45.079Z,53.24
2023-04-25T17:52:46.899Z,53.24
2023-04-25T17:55:11.598Z,53.20
2023-04-25T17:57:38.116Z,53.47
2023-04-25T17:57:46.902Z,53.47
2023-04-25T18:00:07.731Z,51.81
2023-04-25T18:02:36.329Z,52.66
2023-04-25T18:02:46.970Z,52.66
2023-04-25T18:05:09.142Z,52.78
2023-04-25T18:07:36.535Z,53.37
2023-04-25T18:07:46.891Z,53.37
2023-04-25T18:10:05.903Z,53.07
2023-04-25T18:12:33.838Z,53.80
2023-04-25T18:12:46.905Z,53.80
2023-04-25T18:15:01.747Z,54.36
2023-04-25T18:17:28.387Z,53.36
2023-04-25T18:17:46.975Z,53.36
2023-04-25T18:19:55.425Z,53.98
2023-04-25T18:22:22.160Z,54.34
2023-04-25T18:22:46.925Z,54.34
2023-04-25T18:24:50.041Z,54.78
2023-04-25T18:27:17.274Z,55.02
2023-04-25T18:27:46.918Z,55.02
2023-04-25T18:29:45.350Z,55.45
2023-04-25T18:32:12.103Z,56.00
2023-04-25T18:32:46.937Z,56.00
2023-04-25T18:34:41.409Z,56.47
2023-04-25T18:37:07.826Z,56.51
2023-04-25T18:37:46.958Z,56.51
2023-04-25T18:39:34.278Z,57.24
2023-04-25T18:42:05.475Z,57.77
2023-04-25T18:42:46.903Z,57.77
2023-04-25T18:44:36.482Z,58.04
2023-04-25T18:47:03.091Z,58.13
2023-04-25T18:47:46.988Z,58.13
2023-04-25T18:49:29.515Z,59.23
2023-04-25T18:51:58.392Z,59.85
2023-04-25T18:52:46.893Z,59.85
2023-04-25T18:54:24.960Z,59.89
2023-04-25T18:56:51.709Z,59.80
2023-04-25T18:57:46.883Z,59.80
2023-04-25T18:59:18.505Z,60.06
2023-04-25T19:01:45.813Z,60.69
2023-04-25T19:02:46.994Z,60.69
2023-04-25T19:04:12.257Z,60.20
2023-04-25T19:06:38.635Z,60.99
2023-04-25T19:07:46.869Z,60.99
2023-04-25T19:09:05.049Z,61.08
2023-04-25T19:11:31.542Z,60.61
2023-04-25T19:12:46.937Z,60.61
2023-04-25T19:13:58.128Z,60.58
2023-04-25T19:16:26.297Z,61.86
2023-04-25T19:17:46.932Z,61.86
2023-04-25T19:18:55.289Z,61.10
2023-04-25T19:21:21.807Z,62.73
2023-04-25T19:22:46.919Z,62.73
2023-04-25T19:23:48.246Z,62.49
2023-04-25T19:26:14.658Z,62.86
2023-04-25T19:27:46.912Z,62.86
2023-04-25T19:28:44.367Z,62.31
2023-04-25T19:31:11.685Z,62.84
2023-04-25T19:32:46.918Z,62.84
2023-04-25T19:33:38.316Z,63.47
2023-04-25T19:36:04.819Z,63.23
2023-04-25T19:37:47.065Z,63.23
2023-04-25T19:38:31.332Z,64.15
2023-04-25T19:40:57.650Z,63.80
2023-04-25T19:42:46.880Z,63.80
2023-04-25T19:43:24.000Z,64.04
2023-04-25T19:45:51.014Z,64.38
2023-04-25T19:47:46.920Z,64.38
2023-04-25T19:48:17.418Z,65.18
2023-04-25T19:50:43.850Z,65.52
2023-04-25T19:52:46.900Z,65.52
2023-04-25T19:53:10.325Z,65.82
2023-04-25T19:55:36.840Z,66.34
2023-04-25T19:57:46.888Z,66.34
2023-04-25T19:58:03.445Z,66.95
2023-04-25T20:00:29.900Z,67.04
2023-04-25T20:02:47.014Z,67.04
2023-04-25T20:02:56.498Z,66.90
2023-04-25T20:05:23.567Z,66.68
2023-04-25T20:07:46.887Z,66.68
2023-04-25T20:07:50.463Z,68.29
2023-04-25T20:10:17.325Z,68.45
2023-04-25T20:12:44.379Z,68.56
2023-04-25T20:12:46.927Z,68.56
2023-04-25T20:15:11.723Z,69.65
2023-04-25T20:17:42.428Z,70.65
2023-04-25T20:17:46.931Z,70.65
2023-04-25T20:20:10.760Z,70.33
2023-04-25T20:22:38.806Z,70.82
2023-04-25T20:22:46.968Z,70.82
2023-04-25T20:25:07.050Z,71.24
2023-04-25T20:27:33.695Z,71.94
2023-04-25T20:27:46.928Z,71.94
2023-04-25T20:30:04.432Z,72.17
2023-04-25T20:32:32.180Z,73.59
2023-04-25T20:32:46.943Z,73.59
2023-04-25T20:34:58.618Z,74.01
2023-04-25T20:37:24.982Z,73.89
2023-04-25T20:37:46.977Z,73.89
2023-04-25T20:39:51.407Z,73.73
2023-04-25T20:42:17.948Z,73.30
2023-04-25T20:42:46.908Z,73.30
2023-04-25T20:44:44.252Z,73.79
2023-04-25T20:47:10.639Z,73.82
2023-04-25T20:47:46.976Z,73.82
2023-04-25T20:49:37.052Z,74.72
2023-04-25T20:52:05.540Z,74.44
2023-04-25T20:52:46.928Z,74.44
2023-04-25T20:54:32.073Z,74.61
2023-04-25T20:56:58.492Z,74.65
2023-04-25T20:57:46.902Z,74.65
2023-04-25T20:59:25.399Z,75.50
2023-04-25T21:01:53.085Z,75.13
2023-04-25T21:02:47.338Z,75.13
2023-04-25T21:04:20.312Z,75.87
2023-04-25T21:06:46.856Z,77.07
2023-04-25T21:07:47.013Z,77.07